Mettet, Belgium
Current Conditions -  °F | °C
As of 4:55 PM on Sunday 25 Jan 2015 (Local Time) from EBFS Reporting Station
Light Rain Light Rain  
Wind Chill: 31°   Ceiling: 6000
Heat Index: 36°   Visibility: 5mi
Dew Point: 34°   Wind: 6mph
Humidity: 93%   Direction: 260°W
Pressure: 30.39"   Gusts: NA
Location:  50.32°N, 4.66°E
Report Text: EBFS 251555Z 26005KT 8000 -RA BKN060 02/01 Q1029 BLU
Loading
Personal Weather Stations






























Interactive Weather Map New forecast layout! Learn more

10-Day Weather Forecast

Advertisements
Track Severe Weather on mobile